DUB weather

Dublin Airport
Dublin, County Dublin, Ireland

Public forecast

Using degrees Celsius for public forecast. Weather courtesy of forecast.io.

METAR (pilot weather report)

Retrieved 2018/01/20 16:00 UTC (35 minutes ago):

EIDW 201600Z 02004KT 9000 FEW004 SCT014 BKN021 04/04 Q1003 NOSIG

TAF (pilot weather forecast)

Forecast is more than 12 hours old.

Retrieved 2018/01/19 18:10 UTC (22 hours ago):

TAF EIDW 191700Z 1918/2018 25015KT 9999 FEW016 SCT025 BECMG 1923/2002 23009KT BECMG 2004/2007 VRB03KT 6000 -DZ BKN008 TEMPO 2006/2012 3000 -RADZ BKN004 PROB30 TEMPO 2008/2012 1200 BR BKN002 BECMG 2014/2016 BKN012